sensor_id;sensor_type;location;lat;lon;timestamp;P1;durP1;ratioP1;P2;durP2;ratioP2
16766;SDS011;8501;49.926;8.404;2023-12-20T00:01:47;7.67;;;4.90;;
16766;SDS011;8501;49.926;8.404;2023-12-20T00:04:12;7.87;;;5.00;;
16766;SDS011;8501;49.926;8.404;2023-12-20T00:06:38;7.30;;;5.07;;
16766;SDS011;8501;49.926;8.404;2023-12-20T00:09:03;8.17;;;5.00;;
16766;SDS011;8501;49.926;8.404;2023-12-20T00:11:29;7.23;;;5.17;;
16766;SDS011;8501;49.926;8.404;2023-12-20T00:13:55;6.60;;;4.57;;
16766;SDS011;8501;49.926;8.404;2023-12-20T00:16:20;8.17;;;5.17;;
16766;SDS011;8501;49.926;8.404;2023-12-20T00:18:46;7.77;;;5.20;;
16766;SDS011;8501;49.926;8.404;2023-12-20T00:21:11;6.43;;;4.83;;
16766;SDS011;8501;49.926;8.404;2023-12-20T00:23:37;6.77;;;4.33;;
16766;SDS011;8501;49.926;8.404;2023-12-20T00:26:02;6.97;;;4.70;;
16766;SDS011;8501;49.926;8.404;2023-12-20T00:28:28;7.23;;;4.50;;
16766;SDS011;8501;49.926;8.404;2023-12-20T00:30:53;6.40;;;4.10;;
16766;SDS011;8501;49.926;8.404;2023-12-20T00:33:19;5.93;;;4.37;;
16766;SDS011;8501;49.926;8.404;2023-12-20T00:35:45;7.00;;;4.60;;
16766;SDS011;8501;49.926;8.404;2023-12-20T00:38:10;5.90;;;4.23;;
16766;SDS011;8501;49.926;8.404;2023-12-20T00:40:36;5.80;;;4.00;;
16766;SDS011;8501;49.926;8.404;2023-12-20T00:43:02;5.63;;;4.00;;
16766;SDS011;8501;49.926;8.404;2023-12-20T00:45:28;7.47;;;4.40;;
16766;SDS011;8501;49.926;8.404;2023-12-20T00:47:54;5.17;;;3.87;;
16766;SDS011;8501;49.926;8.404;2023-12-20T00:50:19;6.33;;;4.30;;
16766;SDS011;8501;49.926;8.404;2023-12-20T00:52:46;5.73;;;4.00;;
16766;SDS011;8501;49.926;8.404;2023-12-20T00:55:12;5.37;;;4.07;;
16766;SDS011;8501;49.926;8.404;2023-12-20T00:57:38;6.30;;;4.23;;
16766;SDS011;8501;49.926;8.404;2023-12-20T01:00:03;6.63;;;4.27;;
16766;SDS011;8501;49.926;8.404;2023-12-20T01:02:29;5.60;;;4.00;;
16766;SDS011;8501;49.926;8.404;2023-12-20T01:04:55;6.07;;;3.83;;
16766;SDS011;8501;49.926;8.404;2023-12-20T01:07:20;5.83;;;4.10;;
16766;SDS011;8501;49.926;8.404;2023-12-20T01:09:46;7.97;;;3.80;;
16766;SDS011;8501;49.926;8.404;2023-12-20T01:12:12;4.47;;;3.60;;
16766;SDS011;8501;49.926;8.404;2023-12-20T01:14:37;6.47;;;3.90;;
16766;SDS011;8501;49.926;8.404;2023-12-20T01:17:04;6.97;;;3.90;;
16766;SDS011;8501;49.926;8.404;2023-12-20T01:19:30;4.77;;;3.60;;
16766;SDS011;8501;49.926;8.404;2023-12-20T01:21:55;4.70;;;3.60;;
16766;SDS011;8501;49.926;8.404;2023-12-20T01:24:21;5.93;;;4.10;;
16766;SDS011;8501;49.926;8.404;2023-12-20T01:26:46;5.87;;;3.80;;
16766;SDS011;8501;49.926;8.404;2023-12-20T01:29:12;6.13;;;3.90;;
16766;SDS011;8501;49.926;8.404;2023-12-20T01:31:39;6.27;;;4.13;;
16766;SDS011;8501;49.926;8.404;2023-12-20T01:34:05;5.67;;;3.80;;
16766;SDS011;8501;49.926;8.404;2023-12-20T01:36:31;4.93;;;3.57;;
16766;SDS011;8501;49.926;8.404;2023-12-20T01:38:56;5.00;;;3.43;;
16766;SDS011;8501;49.926;8.404;2023-12-20T01:41:22;5.57;;;3.63;;
16766;SDS011;8501;49.926;8.404;2023-12-20T01:43:48;6.40;;;4.00;;
16766;SDS011;8501;49.926;8.404;2023-12-20T01:46:14;4.50;;;3.30;;
16766;SDS011;8501;49.926;8.404;2023-12-20T01:48:40;5.60;;;3.67;;
16766;SDS011;8501;49.926;8.404;2023-12-20T01:51:06;4.60;;;3.20;;
16766;SDS011;8501;49.926;8.404;2023-12-20T01:53:32;4.63;;;3.20;;
16766;SDS011;8501;49.926;8.404;2023-12-20T01:55:58;5.23;;;3.13;;
16766;SDS011;8501;49.926;8.404;2023-12-20T01:58:25;3.70;;;2.73;;
16766;SDS011;8501;49.926;8.404;2023-12-20T02:00:51;3.67;;;3.03;;
16766;SDS011;8501;49.926;8.404;2023-12-20T02:03:17;5.23;;;3.37;;
16766;SDS011;8501;49.926;8.404;2023-12-20T02:05:43;4.37;;;2.97;;
16766;SDS011;8501;49.926;8.404;2023-12-20T02:08:10;5.00;;;3.23;;
16766;SDS011;8501;49.926;8.404;2023-12-20T02:10:35;5.03;;;3.40;;
16766;SDS011;8501;49.926;8.404;2023-12-20T02:13:01;4.03;;;2.90;;
16766;SDS011;8501;49.926;8.404;2023-12-20T02:15:27;4.03;;;2.90;;
16766;SDS011;8501;49.926;8.404;2023-12-20T02:17:52;4.17;;;2.90;;
16766;SDS011;8501;49.926;8.404;2023-12-20T02:20:19;4.30;;;3.27;;
16766;SDS011;8501;49.926;8.404;2023-12-20T02:22:44;4.73;;;3.03;;
16766;SDS011;8501;49.926;8.404;2023-12-20T02:25:10;4.63;;;3.17;;
16766;SDS011;8501;49.926;8.404;2023-12-20T02:27:36;4.20;;;3.13;;
16766;SDS011;8501;49.926;8.404;2023-12-20T02:30:01;3.93;;;2.90;;
16766;SDS011;8501;49.926;8.404;2023-12-20T02:32:28;3.87;;;2.73;;
16766;SDS011;8501;49.926;8.404;2023-12-20T02:34:54;4.00;;;2.97;;
16766;SDS011;8501;49.926;8.404;2023-12-20T02:37:20;4.30;;;3.30;;
16766;SDS011;8501;49.926;8.404;2023-12-20T02:39:46;3.77;;;3.00;;
16766;SDS011;8501;49.926;8.404;2023-12-20T02:42:11;4.40;;;2.83;;
16766;SDS011;8501;49.926;8.404;2023-12-20T02:44:37;5.80;;;3.37;;
16766;SDS011;8501;49.926;8.404;2023-12-20T02:47:03;4.87;;;3.50;;
16766;SDS011;8501;49.926;8.404;2023-12-20T02:49:28;4.03;;;2.97;;
16766;SDS011;8501;49.926;8.404;2023-12-20T02:51:54;3.80;;;2.90;;
16766;SDS011;8501;49.926;8.404;2023-12-20T02:54:20;5.20;;;3.43;;
16766;SDS011;8501;49.926;8.404;2023-12-20T02:56:45;4.03;;;3.00;;
16766;SDS011;8501;49.926;8.404;2023-12-20T02:59:11;5.70;;;3.77;;
16766;SDS011;8501;49.926;8.404;2023-12-20T03:01:41;4.83;;;3.50;;
16766;SDS011;8501;49.926;8.404;2023-12-20T03:04:08;4.77;;;3.47;;
16766;SDS011;8501;49.926;8.404;2023-12-20T03:06:34;4.90;;;3.37;;
16766;SDS011;8501;49.926;8.404;2023-12-20T03:08:59;4.30;;;3.00;;
16766;SDS011;8501;49.926;8.404;2023-12-20T03:11:28;4.70;;;3.00;;
16766;SDS011;8501;49.926;8.404;2023-12-20T03:13:54;3.90;;;2.80;;
16766;SDS011;8501;49.926;8.404;2023-12-20T03:16:20;4.27;;;2.90;;
16766;SDS011;8501;49.926;8.404;2023-12-20T03:18:45;4.37;;;3.00;;
16766;SDS011;8501;49.926;8.404;2023-12-20T03:21:11;4.23;;;2.87;;
16766;SDS011;8501;49.926;8.404;2023-12-20T03:23:36;3.77;;;2.90;;
16766;SDS011;8501;49.926;8.404;2023-12-20T03:26:02;3.60;;;2.87;;
16766;SDS011;8501;49.926;8.404;2023-12-20T03:28:28;3.00;;;2.30;;
16766;SDS011;8501;49.926;8.404;2023-12-20T03:30:54;2.63;;;2.20;;
16766;SDS011;8501;49.926;8.404;2023-12-20T03:33:20;3.67;;;2.50;;
16766;SDS011;8501;49.926;8.404;2023-12-20T03:35:45;3.03;;;2.30;;
16766;SDS011;8501;49.926;8.404;2023-12-20T03:38:11;3.37;;;2.20;;
16766;SDS011;8501;49.926;8.404;2023-12-20T03:40:36;4.47;;;2.30;;
16766;SDS011;8501;49.926;8.404;2023-12-20T03:43:02;3.23;;;2.13;;
16766;SDS011;8501;49.926;8.404;2023-12-20T03:45:28;2.40;;;1.90;;
16766;SDS011;8501;49.926;8.404;2023-12-20T03:47:53;2.50;;;1.90;;
16766;SDS011;8501;49.926;8.404;2023-12-20T03:50:22;2.77;;;2.00;;
16766;SDS011;8501;49.926;8.404;2023-12-20T03:52:47;2.17;;;1.70;;
16766;SDS011;8501;49.926;8.404;2023-12-20T03:55:13;3.33;;;2.10;;
16766;SDS011;8501;49.926;8.404;2023-12-20T03:57:39;3.33;;;1.80;;
16766;SDS011;8501;49.926;8.404;2023-12-20T04:00:05;3.00;;;2.10;;
16766;SDS011;8501;49.926;8.404;2023-12-20T04:02:35;2.73;;;2.10;;
16766;SDS011;8501;49.926;8.404;2023-12-20T04:05:04;3.20;;;2.20;;
16766;SDS011;8501;49.926;8.404;2023-12-20T04:07:30;2.70;;;2.00;;
16766;SDS011;8501;49.926;8.404;2023-12-20T04:09:55;2.77;;;1.90;;
16766;SDS011;8501;49.926;8.404;2023-12-20T04:12:21;2.73;;;2.03;;
16766;SDS011;8501;49.926;8.404;2023-12-20T04:14:46;2.97;;;2.07;;
16766;SDS011;8501;49.926;8.404;2023-12-20T04:17:12;2.83;;;2.17;;
16766;SDS011;8501;49.926;8.404;2023-12-20T04:19:38;2.47;;;1.90;;
16766;SDS011;8501;49.926;8.404;2023-12-20T04:22:03;3.20;;;2.33;;
16766;SDS011;8501;49.926;8.404;2023-12-20T04:24:29;3.07;;;2.17;;
16766;SDS011;8501;49.926;8.404;2023-12-20T04:26:54;3.00;;;1.90;;
16766;SDS011;8501;49.926;8.404;2023-12-20T04:29:20;3.87;;;2.03;;
16766;SDS011;8501;49.926;8.404;2023-12-20T04:31:45;3.33;;;1.93;;
16766;SDS011;8501;49.926;8.404;2023-12-20T04:34:11;2.60;;;1.97;;
16766;SDS011;8501;49.926;8.404;2023-12-20T04:36:37;2.70;;;1.90;;
16766;SDS011;8501;49.926;8.404;2023-12-20T04:39:02;3.60;;;1.70;;
16766;SDS011;8501;49.926;8.404;2023-12-20T04:41:28;2.80;;;2.00;;
16766;SDS011;8501;49.926;8.404;2023-12-20T04:43:53;2.60;;;1.93;;
16766;SDS011;8501;49.926;8.404;2023-12-20T04:46:19;2.27;;;1.83;;
16766;SDS011;8501;49.926;8.404;2023-12-20T04:48:45;3.13;;;2.53;;
16766;SDS011;8501;49.926;8.404;2023-12-20T04:51:10;2.60;;;2.00;;
16766;SDS011;8501;49.926;8.404;2023-12-20T04:53:36;2.50;;;2.00;;
16766;SDS011;8501;49.926;8.404;2023-12-20T04:56:01;2.80;;;2.03;;
16766;SDS011;8501;49.926;8.404;2023-12-20T04:58:27;2.90;;;2.10;;
16766;SDS011;8501;49.926;8.404;2023-12-20T05:00:52;2.80;;;1.83;;
16766;SDS011;8501;49.926;8.404;2023-12-20T05:03:19;2.23;;;1.90;;
16766;SDS011;8501;49.926;8.404;2023-12-20T05:05:45;3.03;;;2.40;;
16766;SDS011;8501;49.926;8.404;2023-12-20T05:08:11;3.13;;;2.30;;
16766;SDS011;8501;49.926;8.404;2023-12-20T05:10:36;3.00;;;2.10;;
16766;SDS011;8501;49.926;8.404;2023-12-20T05:13:02;4.93;;;2.27;;
16766;SDS011;8501;49.926;8.404;2023-12-20T05:15:27;3.40;;;2.40;;
16766;SDS011;8501;49.926;8.404;2023-12-20T05:17:53;3.50;;;2.57;;
16766;SDS011;8501;49.926;8.404;2023-12-20T05:20:18;5.30;;;2.50;;
16766;SDS011;8501;49.926;8.404;2023-12-20T05:22:44;5.77;;;2.60;;
16766;SDS011;8501;49.926;8.404;2023-12-20T05:25:10;3.60;;;2.43;;
16766;SDS011;8501;49.926;8.404;2023-12-20T05:27:35;4.43;;;2.70;;
16766;SDS011;8501;49.926;8.404;2023-12-20T05:30:01;5.83;;;2.33;;
16766;SDS011;8501;49.926;8.404;2023-12-20T05:32:27;5.97;;;2.37;;
16766;SDS011;8501;49.926;8.404;2023-12-20T05:34:53;7.53;;;2.60;;
16766;SDS011;8501;49.926;8.404;2023-12-20T05:37:38;3.27;;;2.00;;
16766;SDS011;8501;49.926;8.404;2023-12-20T05:40:08;3.13;;;1.90;;
16766;SDS011;8501;49.926;8.404;2023-12-20T05:42:36;4.23;;;2.17;;
16766;SDS011;8501;49.926;8.404;2023-12-20T05:45:03;2.53;;;1.90;;
16766;SDS011;8501;49.926;8.404;2023-12-20T05:47:29;3.70;;;2.13;;
16766;SDS011;8501;49.926;8.404;2023-12-20T05:49:54;4.50;;;2.10;;
16766;SDS011;8501;49.926;8.404;2023-12-20T05:52:20;5.03;;;2.37;;
16766;SDS011;8501;49.926;8.404;2023-12-20T05:54:47;4.70;;;2.10;;
16766;SDS011;8501;49.926;8.404;2023-12-20T05:57:14;5.40;;;2.37;;
16766;SDS011;8501;49.926;8.404;2023-12-20T05:59:40;3.83;;;2.20;;
16766;SDS011;8501;49.926;8.404;2023-12-20T06:02:05;5.00;;;2.90;;
16766;SDS011;8501;49.926;8.404;2023-12-20T06:04:31;4.87;;;2.70;;
16766;SDS011;8501;49.926;8.404;2023-12-20T06:06:58;5.97;;;2.83;;
16766;SDS011;8501;49.926;8.404;2023-12-20T06:09:28;2.97;;;1.93;;
16766;SDS011;8501;49.926;8.404;2023-12-20T06:11:54;4.00;;;2.10;;
16766;SDS011;8501;49.926;8.404;2023-12-20T06:14:20;6.37;;;2.50;;
16766;SDS011;8501;49.926;8.404;2023-12-20T06:16:47;3.57;;;2.13;;
16766;SDS011;8501;49.926;8.404;2023-12-20T06:19:12;4.77;;;2.40;;
16766;SDS011;8501;49.926;8.404;2023-12-20T06:21:38;6.50;;;2.50;;
16766;SDS011;8501;49.926;8.404;2023-12-20T06:24:04;5.73;;;2.60;;
16766;SDS011;8501;49.926;8.404;2023-12-20T06:26:30;3.83;;;2.37;;
16766;SDS011;8501;49.926;8.404;2023-12-20T06:28:55;4.50;;;2.40;;
16766;SDS011;8501;49.926;8.404;2023-12-20T06:31:21;5.13;;;2.20;;
16766;SDS011;8501;49.926;8.404;2023-12-20T06:33:47;5.40;;;2.40;;
16766;SDS011;8501;49.926;8.404;2023-12-20T06:36:14;6.53;;;2.60;;
16766;SDS011;8501;49.926;8.404;2023-12-20T06:38:40;5.10;;;2.57;;
16766;SDS011;8501;49.926;8.404;2023-12-20T06:41:07;3.90;;;2.33;;
16766;SDS011;8501;49.926;8.404;2023-12-20T06:43:33;7.33;;;3.03;;
16766;SDS011;8501;49.926;8.404;2023-12-20T06:46:00;2.83;;;2.40;;
16766;SDS011;8501;49.926;8.404;2023-12-20T06:48:26;6.63;;;2.90;;
16766;SDS011;8501;49.926;8.404;2023-12-20T06:50:51;7.67;;;2.50;;
16766;SDS011;8501;49.926;8.404;2023-12-20T06:53:17;4.20;;;2.43;;
16766;SDS011;8501;49.926;8.404;2023-12-20T06:55:43;8.03;;;2.90;;
16766;SDS011;8501;49.926;8.404;2023-12-20T06:58:08;9.40;;;2.97;;
16766;SDS011;8501;49.926;8.404;2023-12-20T07:00:34;5.97;;;2.70;;
16766;SDS011;8501;49.926;8.404;2023-12-20T07:03:00;5.30;;;2.70;;
16766;SDS011;8501;49.926;8.404;2023-12-20T07:05:25;4.63;;;2.53;;
16766;SDS011;8501;49.926;8.404;2023-12-20T07:07:51;6.10;;;2.70;;
16766;SDS011;8501;49.926;8.404;2023-12-20T07:10:17;5.53;;;2.73;;
16766;SDS011;8501;49.926;8.404;2023-12-20T07:12:43;4.37;;;2.50;;
16766;SDS011;8501;49.926;8.404;2023-12-20T07:15:09;8.13;;;2.70;;
16766;SDS011;8501;49.926;8.404;2023-12-20T07:17:35;5.70;;;2.50;;
16766;SDS011;8501;49.926;8.404;2023-12-20T07:20:00;5.17;;;2.27;;
16766;SDS011;8501;49.926;8.404;2023-12-20T07:22:29;8.13;;;2.70;;
16766;SDS011;8501;49.926;8.404;2023-12-20T07:24:56;2.53;;;2.00;;
16766;SDS011;8501;49.926;8.404;2023-12-20T07:27:23;3.53;;;2.07;;
16766;SDS011;8501;49.926;8.404;2023-12-20T07:29:48;7.00;;;3.13;;
16766;SDS011;8501;49.926;8.404;2023-12-20T07:32:14;5.27;;;2.33;;
16766;SDS011;8501;49.926;8.404;2023-12-20T07:34:40;4.77;;;2.30;;
16766;SDS011;8501;49.926;8.404;2023-12-20T07:37:05;6.10;;;2.40;;
16766;SDS011;8501;49.926;8.404;2023-12-20T07:39:31;5.20;;;2.17;;
16766;SDS011;8501;49.926;8.404;2023-12-20T07:41:56;5.03;;;2.33;;
16766;SDS011;8501;49.926;8.404;2023-12-20T07:44:22;2.60;;;2.00;;
16766;SDS011;8501;49.926;8.404;2023-12-20T07:46:48;6.90;;;2.20;;
16766;SDS011;8501;49.926;8.404;2023-12-20T07:49:13;5.53;;;2.40;;
16766;SDS011;8501;49.926;8.404;2023-12-20T07:51:39;6.07;;;2.37;;
16766;SDS011;8501;49.926;8.404;2023-12-20T07:54:04;6.77;;;2.60;;
16766;SDS011;8501;49.926;8.404;2023-12-20T07:56:30;4.13;;;2.00;;
16766;SDS011;8501;49.926;8.404;2023-12-20T07:58:56;4.87;;;2.43;;
16766;SDS011;8501;49.926;8.404;2023-12-20T08:01:22;7.07;;;3.93;;
16766;SDS011;8501;49.926;8.404;2023-12-20T08:03:48;7.27;;;2.33;;
16766;SDS011;8501;49.926;8.404;2023-12-20T08:06:14;5.50;;;2.67;;
16766;SDS011;8501;49.926;8.404;2023-12-20T08:08:42;9.93;;;3.40;;
16766;SDS011;8501;49.926;8.404;2023-12-20T08:11:07;6.43;;;3.00;;
16766;SDS011;8501;49.926;8.404;2023-12-20T08:13:33;9.30;;;4.47;;
16766;SDS011;8501;49.926;8.404;2023-12-20T08:15:59;5.37;;;2.80;;
16766;SDS011;8501;49.926;8.404;2023-12-20T08:18:24;6.10;;;3.70;;
16766;SDS011;8501;49.926;8.404;2023-12-20T08:20:50;5.60;;;3.10;;
16766;SDS011;8501;49.926;8.404;2023-12-20T08:23:17;7.17;;;2.37;;
16766;SDS011;8501;49.926;8.404;2023-12-20T08:25:44;3.83;;;2.30;;
16766;SDS011;8501;49.926;8.404;2023-12-20T08:28:09;6.17;;;2.60;;
16766;SDS011;8501;49.926;8.404;2023-12-20T08:30:35;5.97;;;3.70;;
16766;SDS011;8501;49.926;8.404;2023-12-20T08:33:01;7.63;;;4.37;;
16766;SDS011;8501;49.926;8.404;2023-12-20T08:35:27;8.27;;;3.50;;
16766;SDS011;8501;49.926;8.404;2023-12-20T08:37:53;7.33;;;3.97;;
16766;SDS011;8501;49.926;8.404;2023-12-20T08:40:18;6.03;;;2.30;;
16766;SDS011;8501;49.926;8.404;2023-12-20T08:42:45;5.47;;;2.13;;
16766;SDS011;8501;49.926;8.404;2023-12-20T08:45:11;6.27;;;2.57;;
16766;SDS011;8501;49.926;8.404;2023-12-20T08:47:36;5.50;;;2.80;;
16766;SDS011;8501;49.926;8.404;2023-12-20T08:50:05;3.93;;;2.37;;
16766;SDS011;8501;49.926;8.404;2023-12-20T08:52:31;6.83;;;2.67;;
16766;SDS011;8501;49.926;8.404;2023-12-20T08:54:57;5.67;;;2.60;;
16766;SDS011;8501;49.926;8.404;2023-12-20T08:57:22;5.80;;;3.00;;
16766;SDS011;8501;49.926;8.404;2023-12-20T08:59:49;6.97;;;3.73;;
16766;SDS011;8501;49.926;8.404;2023-12-20T09:02:15;7.57;;;3.73;;
16766;SDS011;8501;49.926;8.404;2023-12-20T09:04:41;10.60;;;5.27;;
16766;SDS011;8501;49.926;8.404;2023-12-20T09:07:20;10.53;;;5.27;;
16766;SDS011;8501;49.926;8.404;2023-12-20T09:09:49;10.07;;;4.33;;
16766;SDS011;8501;49.926;8.404;2023-12-20T09:12:15;12.53;;;5.63;;
16766;SDS011;8501;49.926;8.404;2023-12-20T09:14:42;7.07;;;5.17;;
16766;SDS011;8501;49.926;8.404;2023-12-20T09:17:07;8.13;;;2.97;;
16766;SDS011;8501;49.926;8.404;2023-12-20T09:19:33;9.83;;;3.37;;
16766;SDS011;8501;49.926;8.404;2023-12-20T09:21:59;10.53;;;4.30;;
16766;SDS011;8501;49.926;8.404;2023-12-20T09:24:25;4.97;;;2.93;;
16766;SDS011;8501;49.926;8.404;2023-12-20T09:26:52;7.73;;;4.43;;
16766;SDS011;8501;49.926;8.404;2023-12-20T09:29:17;6.67;;;3.37;;
16766;SDS011;8501;49.926;8.404;2023-12-20T09:31:44;8.63;;;3.20;;
16766;SDS011;8501;49.926;8.404;2023-12-20T09:34:11;5.27;;;2.97;;
16766;SDS011;8501;49.926;8.404;2023-12-20T09:36:37;7.37;;;2.67;;
16766;SDS011;8501;49.926;8.404;2023-12-20T09:39:05;11.20;;;3.53;;
16766;SDS011;8501;49.926;8.404;2023-12-20T09:41:31;7.50;;;3.47;;
16766;SDS011;8501;49.926;8.404;2023-12-20T09:44:02;10.67;;;3.77;;
16766;SDS011;8501;49.926;8.404;2023-12-20T09:46:28;12.97;;;6.97;;
16766;SDS011;8501;49.926;8.404;2023-12-20T09:48:58;8.00;;;3.17;;
16766;SDS011;8501;49.926;8.404;2023-12-20T09:51:25;7.90;;;3.20;;
16766;SDS011;8501;49.926;8.404;2023-12-20T09:53:54;9.03;;;2.70;;
16766;SDS011;8501;49.926;8.404;2023-12-20T09:56:21;7.20;;;2.93;;
16766;SDS011;8501;49.926;8.404;2023-12-20T09:58:47;5.77;;;2.87;;
16766;SDS011;8501;49.926;8.404;2023-12-20T10:04:34;8.20;;;2.90;;
16766;SDS011;8501;49.926;8.404;2023-12-20T10:07:02;8.00;;;2.70;;
16766;SDS011;8501;49.926;8.404;2023-12-20T10:09:31;8.47;;;3.60;;
16766;SDS011;8501;49.926;8.404;2023-12-20T10:11:57;10.47;;;4.30;;
16766;SDS011;8501;49.926;8.404;2023-12-20T10:14:23;8.93;;;3.63;;
16766;SDS011;8501;49.926;8.404;2023-12-20T10:16:49;6.93;;;3.20;;
16766;SDS011;8501;49.926;8.404;2023-12-20T10:19:16;10.83;;;3.20;;
16766;SDS011;8501;49.926;8.404;2023-12-20T10:21:42;5.53;;;2.00;;
16766;SDS011;8501;49.926;8.404;2023-12-20T10:24:09;8.43;;;2.90;;
16766;SDS011;8501;49.926;8.404;2023-12-20T10:26:42;6.97;;;2.90;;
16766;SDS011;8501;49.926;8.404;2023-12-20T10:29:08;5.23;;;3.47;;
16766;SDS011;8501;49.926;8.404;2023-12-20T10:31:35;6.63;;;3.50;;
16766;SDS011;8501;49.926;8.404;2023-12-20T10:34:03;9.00;;;3.47;;
16766;SDS011;8501;49.926;8.404;2023-12-20T10:36:30;6.33;;;3.20;;
16766;SDS011;8501;49.926;8.404;2023-12-20T10:38:57;7.57;;;3.03;;
16766;SDS011;8501;49.926;8.404;2023-12-20T10:41:33;9.40;;;3.10;;
16766;SDS011;8501;49.926;8.404;2023-12-20T10:44:06;5.10;;;2.63;;
16766;SDS011;8501;49.926;8.404;2023-12-20T10:46:33;9.77;;;2.90;;
16766;SDS011;8501;49.926;8.404;2023-12-20T10:48:59;9.53;;;2.83;;
16766;SDS011;8501;49.926;8.404;2023-12-20T10:51:27;10.07;;;3.37;;
16766;SDS011;8501;49.926;8.404;2023-12-20T10:53:55;7.70;;;3.10;;
16766;SDS011;8501;49.926;8.404;2023-12-20T10:59:15;13.00;;;4.53;;
16766;SDS011;8501;49.926;8.404;2023-12-20T11:01:45;12.47;;;5.27;;
16766;SDS011;8501;49.926;8.404;2023-12-20T11:04:14;7.77;;;4.13;;
16766;SDS011;8501;49.926;8.404;2023-12-20T11:06:49;10.70;;;4.27;;
16766;SDS011;8501;49.926;8.404;2023-12-20T11:12:15;7.87;;;3.50;;
16766;SDS011;8501;49.926;8.404;2023-12-20T11:14:49;8.97;;;3.23;;
16766;SDS011;8501;49.926;8.404;2023-12-20T11:17:17;8.10;;;2.90;;
16766;SDS011;8501;49.926;8.404;2023-12-20T11:20:03;9.47;;;3.53;;
16766;SDS011;8501;49.926;8.404;2023-12-20T11:22:30;5.57;;;2.53;;
16766;SDS011;8501;49.926;8.404;2023-12-20T11:25:06;6.60;;;2.67;;
16766;SDS011;8501;49.926;8.404;2023-12-20T11:27:36;8.00;;;3.40;;
16766;SDS011;8501;49.926;8.404;2023-12-20T11:30:05;6.63;;;2.60;;
16766;SDS011;8501;49.926;8.404;2023-12-20T11:32:33;10.93;;;3.80;;
16766;SDS011;8501;49.926;8.404;2023-12-20T11:35:01;9.13;;;3.83;;
16766;SDS011;8501;49.926;8.404;2023-12-20T11:37:30;8.63;;;3.30;;
16766;SDS011;8501;49.926;8.404;2023-12-20T11:40:00;6.63;;;2.87;;
16766;SDS011;8501;49.926;8.404;2023-12-20T11:42:27;8.17;;;3.30;;
16766;SDS011;8501;49.926;8.404;2023-12-20T11:44:53;6.73;;;3.07;;
16766;SDS011;8501;49.926;8.404;2023-12-20T11:47:18;5.83;;;2.93;;
16766;SDS011;8501;49.926;8.404;2023-12-20T11:49:47;5.63;;;2.63;;
16766;SDS011;8501;49.926;8.404;2023-12-20T11:52:13;9.73;;;2.83;;
16766;SDS011;8501;49.926;8.404;2023-12-20T11:54:39;4.43;;;2.53;;
16766;SDS011;8501;49.926;8.404;2023-12-20T11:57:04;8.13;;;3.33;;
16766;SDS011;8501;49.926;8.404;2023-12-20T11:59:30;7.23;;;2.37;;
16766;SDS011;8501;49.926;8.404;2023-12-20T12:01:56;7.17;;;2.73;;
16766;SDS011;8501;49.926;8.404;2023-12-20T12:04:25;5.33;;;2.53;;
16766;SDS011;8501;49.926;8.404;2023-12-20T12:06:51;7.77;;;4.10;;
16766;SDS011;8501;49.926;8.404;2023-12-20T12:09:17;5.53;;;2.93;;
16766;SDS011;8501;49.926;8.404;2023-12-20T12:11:43;7.97;;;2.90;;
16766;SDS011;8501;49.926;8.404;2023-12-20T12:14:09;6.13;;;3.03;;
16766;SDS011;8501;49.926;8.404;2023-12-20T12:16:35;6.13;;;2.80;;
16766;SDS011;8501;49.926;8.404;2023-12-20T12:19:00;7.07;;;2.80;;
16766;SDS011;8501;49.926;8.404;2023-12-20T12:21:26;6.73;;;2.87;;
16766;SDS011;8501;49.926;8.404;2023-12-20T12:23:52;6.27;;;2.70;;
16766;SDS011;8501;49.926;8.404;2023-12-20T12:26:18;5.67;;;2.40;;
16766;SDS011;8501;49.926;8.404;2023-12-20T12:28:44;6.60;;;2.80;;
16766;SDS011;8501;49.926;8.404;2023-12-20T12:31:13;3.10;;;2.33;;
16766;SDS011;8501;49.926;8.404;2023-12-20T12:33:40;7.33;;;2.50;;
16766;SDS011;8501;49.926;8.404;2023-12-20T12:36:07;5.97;;;2.87;;
16766;SDS011;8501;49.926;8.404;2023-12-20T12:38:33;6.40;;;2.73;;
16766;SDS011;8501;49.926;8.404;2023-12-20T12:40:59;7.57;;;3.30;;
16766;SDS011;8501;49.926;8.404;2023-12-20T12:43:25;5.37;;;2.83;;
16766;SDS011;8501;49.926;8.404;2023-12-20T12:45:51;6.40;;;2.90;;
16766;SDS011;8501;49.926;8.404;2023-12-20T12:48:17;6.80;;;3.10;;
16766;SDS011;8501;49.926;8.404;2023-12-20T12:50:43;7.77;;;3.03;;
16766;SDS011;8501;49.926;8.404;2023-12-20T12:53:08;6.87;;;3.00;;
16766;SDS011;8501;49.926;8.404;2023-12-20T12:55:34;7.13;;;3.30;;
16766;SDS011;8501;49.926;8.404;2023-12-20T12:58:01;7.30;;;3.47;;
16766;SDS011;8501;49.926;8.404;2023-12-20T13:00:27;9.57;;;3.60;;
16766;SDS011;8501;49.926;8.404;2023-12-20T13:02:52;8.43;;;3.80;;
16766;SDS011;8501;49.926;8.404;2023-12-20T13:05:18;8.13;;;3.47;;
16766;SDS011;8501;49.926;8.404;2023-12-20T13:07:44;10.13;;;4.80;;
16766;SDS011;8501;49.926;8.404;2023-12-20T13:10:10;7.27;;;3.37;;
16766;SDS011;8501;49.926;8.404;2023-12-20T13:12:36;7.07;;;3.27;;
16766;SDS011;8501;49.926;8.404;2023-12-20T13:15:02;10.07;;;4.00;;
16766;SDS011;8501;49.926;8.404;2023-12-20T13:17:31;11.03;;;3.93;;
16766;SDS011;8501;49.926;8.404;2023-12-20T13:19:56;23.13;;;11.03;;
16766;SDS011;8501;49.926;8.404;2023-12-20T13:22:22;8.17;;;3.87;;
16766;SDS011;8501;49.926;8.404;2023-12-20T13:24:47;8.13;;;3.37;;
16766;SDS011;8501;49.926;8.404;2023-12-20T13:27:13;5.77;;;3.37;;
16766;SDS011;8501;49.926;8.404;2023-12-20T13:29:38;8.73;;;4.20;;
16766;SDS011;8501;49.926;8.404;2023-12-20T13:32:04;6.13;;;3.73;;
16766;SDS011;8501;49.926;8.404;2023-12-20T13:34:30;7.90;;;3.30;;
16766;SDS011;8501;49.926;8.404;2023-12-20T13:36:55;9.97;;;5.40;;
16766;SDS011;8501;49.926;8.404;2023-12-20T13:39:21;11.00;;;6.77;;
16766;SDS011;8501;49.926;8.404;2023-12-20T13:41:47;10.30;;;3.77;;
16766;SDS011;8501;49.926;8.404;2023-12-20T13:44:12;8.50;;;3.80;;
16766;SDS011;8501;49.926;8.404;2023-12-20T13:46:38;9.40;;;5.87;;
16766;SDS011;8501;49.926;8.404;2023-12-20T13:49:04;7.60;;;4.53;;
16766;SDS011;8501;49.926;8.404;2023-12-20T13:51:30;7.73;;;4.73;;
16766;SDS011;8501;49.926;8.404;2023-12-20T13:53:56;5.33;;;2.57;;
16766;SDS011;8501;49.926;8.404;2023-12-20T13:56:22;5.43;;;2.90;;
16766;SDS011;8501;49.926;8.404;2023-12-20T13:58:48;5.07;;;2.67;;
16766;SDS011;8501;49.926;8.404;2023-12-20T14:01:13;6.47;;;2.50;;
16766;SDS011;8501;49.926;8.404;2023-12-20T14:03:39;8.50;;;2.20;;
16766;SDS011;8501;49.926;8.404;2023-12-20T14:06:06;6.50;;;2.80;;
16766;SDS011;8501;49.926;8.404;2023-12-20T14:08:31;6.23;;;3.67;;
16766;SDS011;8501;49.926;8.404;2023-12-20T14:10:57;11.97;;;6.67;;
16766;SDS011;8501;49.926;8.404;2023-12-20T14:13:22;12.93;;;8.50;;
16766;SDS011;8501;49.926;8.404;2023-12-20T14:15:48;12.23;;;6.50;;
16766;SDS011;8501;49.926;8.404;2023-12-20T14:18:14;16.83;;;9.50;;
16766;SDS011;8501;49.926;8.404;2023-12-20T14:20:40;9.63;;;4.87;;
16766;SDS011;8501;49.926;8.404;2023-12-20T14:23:07;7.50;;;3.47;;
16766;SDS011;8501;49.926;8.404;2023-12-20T14:25:34;11.73;;;6.00;;
16766;SDS011;8501;49.926;8.404;2023-12-20T14:28:02;14.30;;;8.57;;
16766;SDS011;8501;49.926;8.404;2023-12-20T14:30:28;9.17;;;3.97;;
16766;SDS011;8501;49.926;8.404;2023-12-20T14:32:54;8.87;;;2.83;;
16766;SDS011;8501;49.926;8.404;2023-12-20T14:35:19;7.20;;;2.70;;
16766;SDS011;8501;49.926;8.404;2023-12-20T14:37:45;5.53;;;2.80;;
16766;SDS011;8501;49.926;8.404;2023-12-20T14:40:11;7.57;;;3.23;;
16766;SDS011;8501;49.926;8.404;2023-12-20T14:42:41;6.57;;;3.27;;
16766;SDS011;8501;49.926;8.404;2023-12-20T14:45:07;7.87;;;2.90;;
16766;SDS011;8501;49.926;8.404;2023-12-20T14:47:33;4.93;;;2.47;;
16766;SDS011;8501;49.926;8.404;2023-12-20T14:49:59;5.27;;;2.27;;
16766;SDS011;8501;49.926;8.404;2023-12-20T14:52:24;6.10;;;3.30;;
16766;SDS011;8501;49.926;8.404;2023-12-20T14:54:50;7.90;;;2.97;;
16766;SDS011;8501;49.926;8.404;2023-12-20T14:57:15;7.40;;;2.80;;
16766;SDS011;8501;49.926;8.404;2023-12-20T14:59:41;7.53;;;3.00;;
16766;SDS011;8501;49.926;8.404;2023-12-20T15:02:08;6.43;;;3.03;;
16766;SDS011;8501;49.926;8.404;2023-12-20T15:04:33;6.60;;;3.00;;